Time;durP1;ratioP1;P1;durP2;ratioP2;P2;SDS_P1;SDS_P2;PMS_P1;PMS_P2;Temp;Humidity;BMP_temperature;BMP_pressure;BME280_temperature;BME280_humidity;BME280_pressure;Samples;Min_cycle;Max_cycle;Signal;HPM_P1;HPM_P2
2022/10/11 00:09:00;;;;;;;3.35;1.08;;;;;;;13.51;65.54;101092.44;18302263;32;20097;-57
2022/10/11 00:19:05;;;;;;;0.40;0.40;;;;;;;13.60;65.01;101080.16;18301985;32;20181;-56
2022/10/11 00:29:08;;;;;;;0.50;0.50;;;;;;;13.52;64.73;101087.22;18301686;32;20098;-56
2022/10/11 00:39:13;;;;;;;0.40;0.40;;;;;;;13.48;64.31;101079.34;18301720;32;20098;-56
2022/10/11 00:49:21;;;;;;;0.45;0.45;;;;;;;13.21;64.53;101076.75;18302081;32;20116;-56
2022/10/11 00:59:28;;;;;;;0.43;0.43;;;;;;;12.88;65.39;101079.44;18300455;32;20102;-57
2022/10/11 01:09:31;;;;;;;0.62;0.50;;;;;;;12.81;64.65;101074.19;18300976;32;20102;-56
2022/10/11 01:19:53;;;;;;;0.40;0.40;;;;;;;12.61;64.97;101073.34;18299337;32;20108;-56
2022/10/11 01:30:04;;;;;;;0.43;0.43;;;;;;;12.48;64.91;101071.59;18298934;32;20132;-56
2022/10/11 01:40:11;;;;;;;0.50;0.50;;;;;;;12.37;65.11;101062.84;18303999;32;20119;-57
2022/10/11 01:50:40;;;;;;;1.00;0.75;;;;;;;12.25;65.23;101045.38;18368926;32;20113;-56
2022/10/11 02:00:54;;;;;;;0.57;0.57;;;;;;;11.94;65.95;101047.03;18371775;32;20108;-56
2022/10/11 02:11:01;;;;;;;0.50;0.50;;;;;;;11.99;65.07;101054.91;18370548;32;20378;-56
2022/10/11 02:21:07;;;;;;;0.70;0.70;;;;;;;11.85;65.35;101054.88;18356085;32;20139;-56
2022/10/11 02:31:11;;;;;;;0.52;0.52;;;;;;;11.71;65.31;101040.84;18369722;32;20112;-56
2022/10/11 02:41:23;;;;;;;0.80;0.80;;;;;;;11.71;65.04;101051.31;18369784;32;20093;-56
2022/10/11 02:51:26;;;;;;;1.62;1.48;;;;;;;11.26;66.90;101061.56;18369221;32;20094;-56
2022/10/11 03:01:31;;;;;;;0.50;0.50;;;;;;;11.39;66.89;101066.03;18369081;32;20160;-56
2022/10/11 03:11:34;;;;;;;0.60;0.60;;;;;;;11.32;67.07;101053.78;18369817;32;20115;-56
2022/10/11 03:21:39;;;;;;;0.80;0.80;;;;;;;11.40;66.88;101059.03;18368501;32;20089;-56
2022/10/11 03:31:42;;;;;;;0.50;0.50;;;;;;;11.45;66.38;101052.09;18368518;32;20097;-57
2022/10/11 03:41:46;;;;;;;0.68;0.68;;;;;;;11.39;67.18;101068.63;18367868;32;20085;-56
2022/10/11 03:51:49;;;;;;;0.82;0.60;;;;;;;11.64;67.67;101076.56;18367466;32;20097;-56
2022/10/11 04:01:54;;;;;;;0.80;0.80;;;;;;;11.83;68.54;101076.66;18366214;32;20430;-56
2022/10/11 04:11:57;;;;;;;1.00;0.77;;;;;;;12.07;68.59;101084.63;18366374;32;20106;-56
2022/10/11 04:22:01;;;;;;;0.40;0.40;;;;;;;12.16;68.84;101075.91;18366444;32;20129;-56
2022/10/11 04:32:05;;;;;;;0.60;0.57;;;;;;;12.44;67.83;101081.19;18366109;32;20244;-56
2022/10/11 04:42:09;;;;;;;0.40;0.40;;;;;;;12.63;67.99;101082.06;18365263;32;20456;-56
2022/10/11 04:52:12;;;;;;;0.52;0.52;;;;;;;12.75;67.96;101083.78;18364765;32;20093;-56
2022/10/11 05:02:17;;;;;;;5.72;2.12;;;;;;;12.86;67.66;101078.56;18364003;32;20090;-56
2022/10/11 05:12:20;;;;;;;0.40;0.40;;;;;;;12.93;67.04;101076.81;18366131;32;20110;-56
2022/10/11 05:22:24;;;;;;;0.40;0.40;;;;;;;12.87;67.44;101072.44;18371752;32;20110;-56
2022/10/11 05:32:28;;;;;;;0.40;0.40;;;;;;;12.87;67.14;101082.06;18371095;32;20109;-57
2022/10/11 05:42:32;;;;;;;0.50;0.50;;;;;;;12.95;67.49;101098.66;18370363;32;20094;-57
2022/10/11 05:52:36;;;;;;;0.57;0.57;;;;;;;12.97;68.53;101104.78;18368420;32;20090;-56
2022/10/11 06:02:40;;;;;;;0.43;0.43;;;;;;;13.40;67.25;101105.56;18356259;32;20111;-56
2022/10/11 06:12:43;;;;;;;1.12;1.02;;;;;;;13.63;67.05;101121.25;18369948;32;20120;-56
2022/10/11 06:22:48;;;;;;;0.40;0.40;;;;;;;14.03;66.17;101141.22;18325481;32;20200;-56
2022/10/11 06:32:51;;;;;;;0.40;0.40;;;;;;;14.19;65.33;101144.63;18291803;32;20366;-56
2022/10/11 06:42:55;;;;;;;0.45;0.45;;;;;;;14.68;64.53;101135.59;18305781;32;20097;-56
2022/10/11 06:52:59;;;;;;;0.30;0.30;;;;;;;15.29;61.53;101148.25;18305769;32;20094;-57
2022/10/11 07:03:03;;;;;;;0.32;0.32;;;;;;;16.67;57.68;101144.78;18305655;32;20156;-56
2022/10/11 07:13:06;;;;;;;0.30;0.30;;;;;;;17.76;53.23;101156.94;18305445;32;20094;-57
2022/10/11 07:23:11;;;;;;;0.30;0.30;;;;;;;18.25;51.26;101149.75;18304857;32;20093;-57
2022/10/11 07:33:14;;;;;;;0.25;0.25;;;;;;;18.35;48.92;101153.09;18303316;32;20093;-57
2022/10/11 07:43:19;;;;;;;0.30;0.30;;;;;;;18.69;48.93;101144.38;18304197;32;20085;-57
2022/10/11 07:53:22;;;;;;;0.30;0.30;;;;;;;18.78;48.73;101152.97;18303919;32;20458;-57
2022/10/11 08:03:26;;;;;;;0.20;0.20;;;;;;;18.74;48.14;101156.59;18303784;32;20466;-57
2022/10/11 08:13:29;;;;;;;0.52;0.52;;;;;;;19.21;46.69;101156.34;18304240;32;20097;-57
2022/10/11 08:23:34;;;;;;;0.28;0.28;;;;;;;17.88;49.66;101167.25;18302750;32;20088;-56
2022/10/11 08:33:37;;;;;;;0.30;0.30;;;;;;;17.55;50.38;101164.41;18303317;32;20141;-57
2022/10/11 08:43:45;;;;;;;0.20;0.20;;;;;;;18.23;49.98;101162.16;18301425;32;20167;-57
2022/10/11 08:53:53;;;;;;;0.22;0.22;;;;;;;18.43;48.52;101167.00;18285998;32;20485;-57
2022/10/11 09:03:58;;;;;;;0.10;0.10;;;;;;;19.76;47.15;101159.25;18245600;32;20082;-57
2022/10/11 09:14:23;;;;;;;0.75;0.60;;;;;;;20.12;46.85;101152.09;18244719;32;20108;-57
2022/10/11 09:24:39;;;;;;;0.30;0.30;;;;;;;20.61;45.96;101158.50;18261831;32;20474;-57
2022/10/11 09:34:43;;;;;;;0.20;0.20;;;;;;;20.20;46.98;101163.28;18309029;32;20077;-57
2022/10/11 09:44:48;;;;;;;0.20;0.20;;;;;;;20.40;47.80;101159.19;18308966;32;20120;-57
2022/10/11 09:54:55;;;;;;;0.10;0.10;;;;;;;20.76;47.57;101161.56;18294696;32;20467;-57
2022/10/11 10:05:14;;;;;;;0.90;0.65;;;;;;;20.90;47.67;101153.16;18253136;32;20615;-57
2022/10/11 10:15:18;;;;;;;0.70;0.30;;;;;;;21.20;47.15;101153.91;18255390;32;20102;-57
2022/10/11 10:25:27;;;;;;;0.10;0.10;;;;;;;21.50;47.35;101158.19;18277051;32;20131;-57
2022/10/11 10:35:33;;;;;;;0.10;0.10;;;;;;;21.81;46.12;101153.56;18306728;32;20443;-57
2022/10/11 10:45:49;;;;;;;0.22;0.22;;;;;;;21.48;46.85;101147.62;18306289;32;20103;-57
2022/10/11 10:55:57;;;;;;;0.10;0.10;;;;;;;21.57;46.32;101140.25;18305479;32;20138;-56
2022/10/11 11:06:04;;;;;;;0.32;0.32;;;;;;;21.60;46.22;101129.50;18288960;32;83019;-57
2022/10/11 11:16:13;;;;;;;0.30;0.30;;;;;;;21.78;47.17;101129.75;18290518;32;20097;-57
2022/10/11 11:26:25;;;;;;;0.10;0.10;;;;;;;21.88;46.52;101126.72;18305217;32;20099;-57
2022/10/11 11:36:36;;;;;;;0.20;0.20;;;;;;;21.95;46.96;101131.78;18304726;32;20117;-57
2022/10/11 11:46:44;;;;;;;0.13;0.13;;;;;;;22.39;45.44;101129.16;18291419;32;20110;-57
2022/10/11 11:56:56;;;;;;;0.45;0.45;;;;;;;22.33;46.58;101121.41;18301328;32;20172;-57
2022/10/11 12:07:04;;;;;;;0.40;0.20;;;;;;;22.64;46.22;101111.34;18302739;32;20447;-57
2022/10/11 12:17:20;;;;;;;0.20;0.20;;;;;;;22.67;46.41;101097.91;18303079;32;20189;-57
2022/10/11 12:27:39;;;;;;;0.65;0.65;;;;;;;21.69;49.76;101099.09;18301482;32;20098;-57
2022/10/11 12:37:51;;;;;;;0.10;0.10;;;;;;;21.04;47.71;101095.19;18301555;32;20108;-57
2022/10/11 12:48:16;;;;;;;0.30;0.30;;;;;;;21.97;48.03;101090.91;18301306;32;20379;-57
2022/10/11 12:58:37;;;;;;;2.03;0.50;;;;;;;22.62;45.99;101083.94;18298324;32;20132;-57
2022/10/11 13:08:46;;;;;;;0.30;0.30;;;;;;;21.93;47.27;101081.34;18299790;32;20164;-57
2022/10/11 13:18:50;;;;;;;0.37;0.35;;;;;;;22.63;45.81;101078.56;18300726;32;20145;-57
2022/10/11 13:28:55;;;;;;;0.03;0.03;;;;;;;22.29;45.44;101077.28;18299278;32;20113;-57
2022/10/11 13:39:00;;;;;;;0.10;0.10;;;;;;;22.31;45.63;101072.75;18307153;32;20116;-57
2022/10/11 13:49:25;;;;;;;0.20;0.20;;;;;;;22.99;44.86;101067.25;18293890;32;20181;-57
2022/10/11 13:59:28;;;;;;;0.28;0.25;;;;;;;22.38;45.50;101066.25;18307692;32;20347;-57
2022/10/11 14:09:34;;;;;;;0.62;0.52;;;;;;;22.85;43.17;101075.00;18306930;32;20131;-57
2022/10/11 14:19:38;;;;;;;0.37;0.35;;;;;;;23.22;42.88;101070.72;18293003;32;20098;-58
2022/10/11 14:29:43;;;;;;;0.32;0.25;;;;;;;22.94;43.28;101071.94;18307570;32;20098;-57
2022/10/11 14:40:12;;;;;;;1.35;0.55;;;;;;;23.02;43.32;101081.37;18307101;32;20095;-58
2022/10/11 14:50:37;;;;;;;0.20;0.20;;;;;;;22.95;45.07;101071.00;18292348;32;20098;-57
2022/10/11 15:00:41;;;;;;;1.65;0.35;;;;;;;22.81;45.42;101068.94;18306660;32;20104;-57
2022/10/11 15:10:45;;;;;;;0.10;0.10;;;;;;;22.19;46.00;101074.09;18305486;32;20099;-57
2022/10/11 15:20:50;;;;;;;1.00;0.32;;;;;;;22.43;45.18;101063.41;18291090;32;20106;-57
2022/10/11 15:30:54;;;;;;;0.25;0.20;;;;;;;22.21;46.11;101079.38;18304965;32;20102;-57
2022/10/11 15:40:58;;;;;;;0.03;0.03;;;;;;;22.26;46.82;101088.91;18304530;32;20108;-57
2022/10/11 15:51:02;;;;;;;0.17;0.17;;;;;;;22.08;47.71;101095.81;18290199;32;20110;-57
2022/10/11 16:01:07;;;;;;;0.62;0.45;;;;;;;21.90;48.53;101100.94;18302487;32;20117;-57
2022/10/11 16:11:12;;;;;;;0.40;0.40;;;;;;;21.56;50.41;101109.28;18288744;32;20101;-57
2022/10/11 16:21:15;;;;;;;0.30;0.30;;;;;;;21.13;51.97;101124.97;18302505;32;20366;-57
2022/10/11 16:31:20;;;;;;;0.20;0.20;;;;;;;20.59;53.65;101133.81;18301354;32;20486;-57
2022/10/11 16:41:23;;;;;;;0.40;0.40;;;;;;;20.18;55.02;101139.50;18288435;32;20098;-57
2022/10/11 16:51:29;;;;;;;0.75;0.75;;;;;;;19.82;56.22;101148.50;18301672;32;20090;-57
2022/10/11 17:01:32;;;;;;;0.43;0.40;;;;;;;19.51;57.31;101154.63;18300970;32;20459;-57
2022/10/11 17:11:36;;;;;;;0.98;0.57;;;;;;;19.17;58.63;101168.78;18291921;32;20118;-57
2022/10/11 17:21:40;;;;;;;1.65;1.17;;;;;;;18.96;59.37;101173.66;18309649;32;20098;-57
2022/10/11 17:31:46;;;;;;;2.05;0.68;;;;;;;18.84;59.74;101179.28;18308421;32;20414;-57
2022/10/11 17:41:54;;;;;;;0.20;0.20;;;;;;;18.69;60.67;101183.16;18307559;32;20145;-57
2022/10/11 17:51:58;;;;;;;1.80;1.20;;;;;;;18.56;60.99;101186.09;18307871;32;20111;-57
2022/10/11 18:02:02;;;;;;;0.45;0.45;;;;;;;18.56;60.98;101194.03;18308339;32;20098;-57
2022/10/11 18:12:07;;;;;;;0.37;0.32;;;;;;;18.40;61.61;101203.19;18306793;32;20094;-57
2022/10/11 18:22:10;;;;;;;0.52;0.52;;;;;;;18.31;61.92;101201.62;18306070;32;20150;-57
2022/10/11 18:32:16;;;;;;;0.75;0.45;;;;;;;18.13;62.06;101214.34;18292682;32;20103;-57
2022/10/11 18:42:21;;;;;;;0.30;0.30;;;;;;;17.86;62.71;101218.34;18306264;32;20090;-57
2022/10/11 18:52:26;;;;;;;1.75;0.93;;;;;;;17.59;63.53;101218.88;18352131;32;20107;-57
2022/10/11 19:02:29;;;;;;;0.32;0.32;;;;;;;17.52;63.59;101209.31;18369323;32;20097;-57
2022/10/11 19:12:34;;;;;;;1.20;1.10;;;;;;;17.37;63.96;101205.19;18368927;32;20097;-57
2022/10/11 19:22:37;;;;;;;0.65;0.65;;;;;;;17.13;64.80;101217.91;18354262;32;20135;-57
2022/10/11 19:32:41;;;;;;;0.75;0.75;;;;;;;17.09;64.55;101220.63;18354261;32;20105;-57
2022/10/11 19:42:44;;;;;;;3.95;1.10;;;;;;;16.99;64.15;101225.12;18338216;32;20133;-57
2022/10/11 19:52:49;;;;;;;0.98;0.73;;;;;;;16.80;64.07;101228.06;18304211;32;20478;-57
2022/10/11 20:02:52;;;;;;;0.57;0.57;;;;;;;16.60;64.26;101231.84;18304999;32;20116;-57
2022/10/11 20:12:57;;;;;;;0.90;0.65;;;;;;;16.33;65.19;101230.47;18290422;32;20355;-57
2022/10/11 20:23:00;;;;;;;0.95;0.88;;;;;;;16.17;65.47;101241.19;18290134;32;20818;-57
2022/10/11 20:33:05;;;;;;;1.42;0.90;;;;;;;16.17;65.90;101241.19;18302908;32;20098;-57
2022/10/11 20:43:08;;;;;;;0.68;0.47;;;;;;;16.10;66.02;101236.87;18304505;32;20452;-56
2022/10/11 20:53:12;;;;;;;0.40;0.40;;;;;;;15.91;65.96;101254.66;18309594;32;20113;-57
2022/10/11 21:03:18;;;;;;;2.22;1.10;;;;;;;15.70;65.61;101255.72;18308857;32;20133;-57
2022/10/11 21:13:23;;;;;;;0.93;0.93;;;;;;;15.51;65.66;101258.53;18320959;32;20458;-56
2022/10/11 21:23:26;;;;;;;0.40;0.40;;;;;;;15.53;65.32;101262.91;18372134;32;20410;-57
2022/10/11 21:33:31;;;;;;;0.77;0.77;;;;;;;15.01;66.34;101264.19;18316489;32;20097;-56
2022/10/11 21:43:34;;;;;;;1.87;1.77;;;;;;;14.96;66.53;101258.06;18307895;32;20397;-56
2022/10/11 21:53:39;;;;;;;1.05;0.90;;;;;;;14.84;66.32;101264.28;18306876;32;20090;-57
2022/10/11 22:03:42;;;;;;;1.85;1.08;;;;;;;14.61;66.19;101270.50;18307429;32;20097;-56
2022/10/11 22:13:48;;;;;;;2.37;1.02;;;;;;;14.33;66.59;101272.41;18306911;32;20100;-56
2022/10/11 22:23:52;;;;;;;1.23;0.95;;;;;;;14.15;66.73;101261.94;18306957;32;20782;-57
2022/10/11 22:33:59;;;;;;;0.85;0.82;;;;;;;13.97;67.01;101261.97;18306509;32;20094;-56
2022/10/11 22:44:02;;;;;;;1.08;0.80;;;;;;;13.97;66.71;101259.38;18305896;32;20348;-56
2022/10/11 22:54:06;;;;;;;2.00;1.12;;;;;;;13.77;66.61;101259.44;18305860;32;20370;-57
2022/10/11 23:04:09;;;;;;;0.50;0.50;;;;;;;13.83;66.83;101267.25;18305034;32;20704;-56
2022/10/11 23:14:14;;;;;;;0.93;0.65;;;;;;;14.15;66.29;101259.31;18305324;32;20099;-56
2022/10/11 23:24:17;;;;;;;0.43;0.43;;;;;;;13.86;67.70;101267.28;18305343;32;20097;-57
2022/10/11 23:34:22;;;;;;;1.17;0.60;;;;;;;13.90;67.34;101274.25;18306236;32;20111;-57
2022/10/11 23:44:25;;;;;;;0.30;0.30;;;;;;;13.72;68.75;101278.66;18304818;32;20156;-56
2022/10/11 23:54:29;;;;;;;1.00;1.00;;;;;;;13.94;68.37;101283.91;18304545;32;20173;-57
